Time,TemperatureF,DewpointF,PressureIn,WindDirection,WindDirectionDegrees,WindSpeedMPH,WindSpeedGustMPH,Humidity,HourlyPrecipIn,Conditions,Clouds,dailyrainin,SoftwareType,DateUTC
2013-11-19 00:00:00,27.3,23.7,30.27,WNW,291,0.0,0.0,86,0.00,,---,0.00,VWS V13.01,2013-11-19 06:00:00,
2013-11-19 00:30:00,25.4,22.1,30.27,WNW,291,0.0,0.0,87,0.00,,---,0.00,VWS V13.01,2013-11-19 06:30:00,
2013-11-19 01:00:00,24.9,22.1,30.27,WNW,291,0.0,0.0,89,0.00,,---,0.00,VWS V13.01,2013-11-19 07:00:00,
2013-11-19 01:30:00,23.9,21.4,30.28,WNW,291,0.0,0.0,90,0.00,,---,0.00,VWS V13.01,2013-11-19 07:30:00,
2013-11-19 02:00:00,23.4,21.2,30.30,WNW,291,0.0,0.0,91,0.00,,---,0.00,VWS V13.01,2013-11-19 08:00:00,
2013-11-19 02:30:00,24.4,22.2,30.31,WNW,291,0.0,0.0,91,0.00,,---,0.00,VWS V13.01,2013-11-19 08:30:00,
2013-11-19 03:00:00,23.9,21.7,30.32,WNW,291,0.0,0.0,91,0.00,,---,0.00,VWS V13.01,2013-11-19 09:00:00,
2013-11-19 03:30:00,23.0,20.8,30.32,WNW,291,0.0,0.0,91,0.00,,---,0.00,VWS V13.01,2013-11-19 09:30:00,
2013-11-19 04:00:00,21.5,19.3,30.33,WNW,291,0.0,0.0,91,0.00,,---,0.00,VWS V13.01,2013-11-19 10:00:00,
2013-11-19 04:30:00,21.3,19.3,30.33,WNW,291,0.0,0.0,92,0.00,,---,0.00,VWS V13.01,2013-11-19 10:30:00,
2013-11-19 05:00:00,22.3,20.6,30.34,WNW,291,0.0,0.0,93,0.00,,---,0.00,VWS V13.01,2013-11-19 11:00:00,
2013-11-19 05:30:00,21.8,20.1,30.35,WNW,291,0.0,0.0,93,0.00,,---,0.00,VWS V13.01,2013-11-19 11:30:00,
2013-11-19 06:30:00,19.7,18.0,30.35,WNW,291,0.0,0.0,93,0.00,,---,0.00,VWS V13.01,2013-11-19 12:30:00,
2013-11-19 07:00:00,20.4,19.0,30.36,WNW,291,0.0,0.0,94,0.00,,---,0.00,VWS V13.01,2013-11-19 13:00:00,
2013-11-19 07:30:00,21.2,19.8,30.35,WNW,291,0.0,0.0,94,0.00,,---,0.00,VWS V13.01,2013-11-19 13:30:00,
2013-11-19 08:00:00,24.3,23.1,30.35,WNW,291,0.0,0.0,95,0.00,,---,0.00,VWS V13.01,2013-11-19 14:00:00,
2013-11-19 08:30:00,26.4,24.9,30.35,ENE,76,0.0,0.0,94,0.00,,---,0.00,VWS V13.01,2013-11-19 14:30:00,
2013-11-19 09:00:00,28.5,25.4,30.35,ENE,71,2.0,6.0,88,0.00,,---,0.00,VWS V13.01,2013-11-19 15:00:00,
2013-11-19 09:30:00,31.5,26.0,30.34,East,82,0.0,7.0,80,0.00,,---,0.00,VWS V13.01,2013-11-19 15:30:00,
2013-11-19 10:00:00,32.9,26.2,30.34,ESE,117,0.0,4.0,76,0.00,,---,0.00,VWS V13.01,2013-11-19 16:00:00,
2013-11-19 10:30:00,33.8,26.1,30.34,South,189,0.0,7.0,73,0.00,,---,0.00,VWS V13.01,2013-11-19 16:30:00,
2013-11-19 11:00:00,35.3,26.9,30.34,SSE,148,0.0,1.0,71,0.00,,---,0.00,VWS V13.01,2013-11-19 17:00:00,
2013-11-19 11:30:00,36.5,27.7,30.32,SSE,160,0.0,2.0,70,0.00,,---,0.00,VWS V13.01,2013-11-19 17:30:00,
2013-11-19 12:00:00,37.6,27.6,30.31,SSE,154,0.0,1.0,67,0.00,,---,0.00,VWS V13.01,2013-11-19 18:00:00,
2013-11-19 12:30:00,39.3,29.3,30.30,SE,144,0.0,6.0,67,0.00,,---,0.00,VWS V13.01,2013-11-19 18:30:00,
2013-11-19 13:00:00,39.9,29.5,30.29,South,175,0.0,6.0,66,0.00,,---,0.00,VWS V13.01,2013-11-19 19:00:00,
2013-11-19 13:30:00,40.1,29.3,30.28,SSE,165,0.0,5.0,65,0.00,,---,0.00,VWS V13.01,2013-11-19 19:30:00,
2013-11-19 14:00:00,40.1,29.3,30.27,SSE,163,0.0,7.0,65,0.00,,---,0.00,VWS V13.01,2013-11-19 20:00:00,
2013-11-19 14:30:00,39.9,29.1,30.25,South,179,0.0,5.0,65,0.00,,---,0.00,VWS V13.01,2013-11-19 20:30:00,
2013-11-19 15:00:00,39.6,29.6,30.25,SSE,167,0.0,6.0,67,0.00,,---,0.00,VWS V13.01,2013-11-19 21:00:00,
2013-11-19 15:30:00,38.8,29.9,30.26,SSE,165,0.0,1.0,70,0.00,,---,0.00,VWS V13.01,2013-11-19 21:30:00,
2013-11-19 16:00:00,36.9,29.1,30.26,SSE,163,0.0,1.0,73,0.00,,---,0.00,VWS V13.01,2013-11-19 22:00:00,
2013-11-19 16:30:00,34.7,28.5,30.26,SSE,163,0.0,0.0,78,0.00,,---,0.00,VWS V13.01,2013-11-19 22:30:00,
2013-11-19 17:00:00,33.7,28.2,30.26,SSE,163,0.0,0.0,80,0.00,,---,0.00,VWS V13.01,2013-11-19 23:00:00,
2013-11-19 17:30:00,32.6,28.0,30.27,SSE,163,0.0,0.0,83,0.00,,---,0.00,VWS V13.01,2013-11-19 23:30:00,
2013-11-19 18:00:00,31.8,27.5,30.26,SSE,163,0.0,0.0,84,0.00,,---,0.00,VWS V13.01,2013-11-20 00:00:00,
2013-11-19 18:30:00,31.7,27.4,30.26,SSE,163,0.0,0.0,84,0.00,,---,0.00,VWS V13.01,2013-11-20 00:30:00,
2013-11-19 19:00:00,31.4,27.4,30.25,SSE,163,0.0,0.0,85,0.00,,---,0.00,VWS V13.01,2013-11-20 01:00:00,
2013-11-19 19:30:00,31.5,27.8,30.24,SSE,163,0.0,0.0,86,0.00,,---,0.00,VWS V13.01,2013-11-20 01:30:00,
2013-11-19 20:00:00,31.5,28.1,30.24,SSE,163,0.0,0.0,87,0.00,,---,0.00,VWS V13.01,2013-11-20 02:00:00,
2013-11-19 20:30:00,31.8,28.4,30.24,SSE,163,0.0,0.0,87,0.00,,---,0.00,VWS V13.01,2013-11-20 02:30:00,
2013-11-19 21:00:00,31.9,28.8,30.24,SSE,163,0.0,0.0,88,0.00,,---,0.00,VWS V13.01,2013-11-20 03:00:00,
2013-11-19 21:30:00,32.4,29.2,30.23,SSE,163,0.0,0.0,88,0.00,,---,0.00,VWS V13.01,2013-11-20 03:30:00,
2013-11-19 22:00:00,31.3,28.4,30.23,SSE,163,0.0,0.0,89,0.00,,---,0.00,VWS V13.01,2013-11-20 04:00:00,
2013-11-19 22:30:00,32.3,29.4,30.22,SSE,163,0.0,0.0,89,0.00,,---,0.00,VWS V13.01,2013-11-20 04:30:00,
2013-11-19 23:00:00,32.9,29.7,30.22,SSE,163,0.0,3.0,88,0.00,,---,0.00,VWS V13.01,2013-11-20 05:00:00,
2013-11-19 23:30:00,33.1,29.7,30.22,SSE,158,0.0,5.0,87,0.00,,---,0.00,VWS V13.01,2013-11-20 05:30:00,